sensor_id;sensor_type;location;lat;lon;timestamp;P1;durP1;ratioP1;P2;durP2;ratioP2
11614;SDS011;5863;52.832;4.758;2023-08-30T00:00:56;3.83;;;3.38;;
11614;SDS011;5863;52.832;4.758;2023-08-30T00:03:23;4.45;;;3.38;;
11614;SDS011;5863;52.832;4.758;2023-08-30T00:05:50;5.50;;;3.42;;
11614;SDS011;5863;52.832;4.758;2023-08-30T00:08:16;3.50;;;3.13;;
11614;SDS011;5863;52.832;4.758;2023-08-30T00:10:44;4.38;;;3.72;;
11614;SDS011;5863;52.832;4.758;2023-08-30T00:13:12;5.32;;;3.85;;
11614;SDS011;5863;52.832;4.758;2023-08-30T00:15:39;4.07;;;3.38;;
11614;SDS011;5863;52.832;4.758;2023-08-30T00:18:05;4.90;;;3.47;;
11614;SDS011;5863;52.832;4.758;2023-08-30T00:20:32;5.13;;;3.40;;
11614;SDS011;5863;52.832;4.758;2023-08-30T00:22:59;4.90;;;3.70;;
11614;SDS011;5863;52.832;4.758;2023-08-30T00:25:26;6.93;;;4.15;;
11614;SDS011;5863;52.832;4.758;2023-08-30T00:27:52;7.20;;;4.00;;
11614;SDS011;5863;52.832;4.758;2023-08-30T00:30:20;4.88;;;4.18;;
11614;SDS011;5863;52.832;4.758;2023-08-30T00:32:47;4.78;;;3.90;;
11614;SDS011;5863;52.832;4.758;2023-08-30T00:35:14;5.15;;;4.30;;
11614;SDS011;5863;52.832;4.758;2023-08-30T00:37:40;5.75;;;3.90;;
11614;SDS011;5863;52.832;4.758;2023-08-30T00:40:08;4.85;;;3.95;;
11614;SDS011;5863;52.832;4.758;2023-08-30T00:42:35;5.60;;;4.13;;
11614;SDS011;5863;52.832;4.758;2023-08-30T00:45:01;7.78;;;4.60;;
11614;SDS011;5863;52.832;4.758;2023-08-30T00:47:30;5.57;;;4.32;;
11614;SDS011;5863;52.832;4.758;2023-08-30T00:49:56;6.72;;;4.65;;
11614;SDS011;5863;52.832;4.758;2023-08-30T00:52:23;4.90;;;4.40;;
11614;SDS011;5863;52.832;4.758;2023-08-30T00:54:50;6.05;;;4.97;;
11614;SDS011;5863;52.832;4.758;2023-08-30T00:57:17;5.18;;;4.60;;
11614;SDS011;5863;52.832;4.758;2023-08-30T00:59:44;5.18;;;4.43;;
11614;SDS011;5863;52.832;4.758;2023-08-30T01:02:10;7.28;;;4.63;;
11614;SDS011;5863;52.832;4.758;2023-08-30T01:04:38;6.85;;;4.55;;
11614;SDS011;5863;52.832;4.758;2023-08-30T01:07:05;8.48;;;4.90;;
11614;SDS011;5863;52.832;4.758;2023-08-30T01:09:32;6.32;;;4.97;;
11614;SDS011;5863;52.832;4.758;2023-08-30T01:12:00;7.05;;;5.35;;
11614;SDS011;5863;52.832;4.758;2023-08-30T01:14:35;6.10;;;5.03;;
11614;SDS011;5863;52.832;4.758;2023-08-30T01:17:07;6.50;;;5.13;;
11614;SDS011;5863;52.832;4.758;2023-08-30T01:19:39;5.82;;;4.85;;
11614;SDS011;5863;52.832;4.758;2023-08-30T01:22:16;7.32;;;5.15;;
11614;SDS011;5863;52.832;4.758;2023-08-30T01:24:50;6.97;;;4.97;;
11614;SDS011;5863;52.832;4.758;2023-08-30T01:27:25;9.02;;;5.13;;
11614;SDS011;5863;52.832;4.758;2023-08-30T01:29:57;6.20;;;4.90;;
11614;SDS011;5863;52.832;4.758;2023-08-30T01:32:24;7.20;;;5.15;;
11614;SDS011;5863;52.832;4.758;2023-08-30T01:34:52;6.75;;;5.65;;
11614;SDS011;5863;52.832;4.758;2023-08-30T01:37:19;6.30;;;5.60;;
11614;SDS011;5863;52.832;4.758;2023-08-30T01:39:45;7.40;;;5.22;;
11614;SDS011;5863;52.832;4.758;2023-08-30T01:42:12;7.57;;;5.68;;
11614;SDS011;5863;52.832;4.758;2023-08-30T01:44:48;8.30;;;6.22;;
11614;SDS011;5863;52.832;4.758;2023-08-30T01:47:16;6.95;;;5.50;;
11614;SDS011;5863;52.832;4.758;2023-08-30T01:49:44;8.05;;;5.60;;
11614;SDS011;5863;52.832;4.758;2023-08-30T01:52:11;7.43;;;5.35;;
11614;SDS011;5863;52.832;4.758;2023-08-30T01:54:39;8.48;;;5.95;;
11614;SDS011;5863;52.832;4.758;2023-08-30T01:57:09;8.18;;;5.35;;
11614;SDS011;5863;52.832;4.758;2023-08-30T01:59:35;9.05;;;5.55;;
11614;SDS011;5863;52.832;4.758;2023-08-30T02:02:03;8.73;;;5.90;;
11614;SDS011;5863;52.832;4.758;2023-08-30T02:04:30;7.10;;;5.63;;
11614;SDS011;5863;52.832;4.758;2023-08-30T02:06:57;7.80;;;5.35;;
11614;SDS011;5863;52.832;4.758;2023-08-30T02:09:29;7.07;;;5.30;;
11614;SDS011;5863;52.832;4.758;2023-08-30T02:12:02;8.27;;;5.90;;
11614;SDS011;5863;52.832;4.758;2023-08-30T02:14:33;10.13;;;6.20;;
11614;SDS011;5863;52.832;4.758;2023-08-30T02:17:01;7.28;;;6.15;;
11614;SDS011;5863;52.832;4.758;2023-08-30T02:19:30;7.78;;;6.50;;
11614;SDS011;5863;52.832;4.758;2023-08-30T02:21:57;8.50;;;6.85;;
11614;SDS011;5863;52.832;4.758;2023-08-30T02:24:25;10.77;;;6.35;;
11614;SDS011;5863;52.832;4.758;2023-08-30T02:26:52;10.10;;;6.50;;
11614;SDS011;5863;52.832;4.758;2023-08-30T02:29:18;7.35;;;6.35;;
11614;SDS011;5863;52.832;4.758;2023-08-30T02:31:45;10.32;;;7.13;;
11614;SDS011;5863;52.832;4.758;2023-08-30T02:34:13;7.80;;;6.07;;
11614;SDS011;5863;52.832;4.758;2023-08-30T02:36:40;9.23;;;6.05;;
11614;SDS011;5863;52.832;4.758;2023-08-30T02:39:06;9.05;;;6.70;;
11614;SDS011;5863;52.832;4.758;2023-08-30T02:41:33;7.70;;;6.05;;
11614;SDS011;5863;52.832;4.758;2023-08-30T02:44:00;7.88;;;6.25;;
11614;SDS011;5863;52.832;4.758;2023-08-30T02:46:27;7.15;;;5.93;;
11614;SDS011;5863;52.832;4.758;2023-08-30T02:48:53;7.50;;;5.93;;
11614;SDS011;5863;52.832;4.758;2023-08-30T02:51:22;7.20;;;5.93;;
11614;SDS011;5863;52.832;4.758;2023-08-30T02:53:49;7.32;;;6.03;;
11614;SDS011;5863;52.832;4.758;2023-08-30T02:56:15;6.38;;;5.72;;
11614;SDS011;5863;52.832;4.758;2023-08-30T02:58:42;8.73;;;5.88;;
11614;SDS011;5863;52.832;4.758;2023-08-30T03:01:08;11.35;;;5.65;;
11614;SDS011;5863;52.832;4.758;2023-08-30T03:03:35;9.48;;;5.70;;
11614;SDS011;5863;52.832;4.758;2023-08-30T03:06:02;6.63;;;5.45;;
11614;SDS011;5863;52.832;4.758;2023-08-30T03:08:30;10.75;;;5.18;;
11614;SDS011;5863;52.832;4.758;2023-08-30T03:11:06;5.97;;;4.47;;
11614;SDS011;5863;52.832;4.758;2023-08-30T03:13:34;6.50;;;4.60;;
11614;SDS011;5863;52.832;4.758;2023-08-30T03:16:02;7.78;;;4.82;;
11614;SDS011;5863;52.832;4.758;2023-08-30T03:18:35;7.18;;;4.60;;
11614;SDS011;5863;52.832;4.758;2023-08-30T03:21:02;7.35;;;4.82;;
11614;SDS011;5863;52.832;4.758;2023-08-30T03:23:30;10.13;;;5.38;;
11614;SDS011;5863;52.832;4.758;2023-08-30T03:25:58;7.43;;;5.03;;
11614;SDS011;5863;52.832;4.758;2023-08-30T03:28:24;6.05;;;4.78;;
11614;SDS011;5863;52.832;4.758;2023-08-30T03:30:52;7.82;;;5.03;;
11614;SDS011;5863;52.832;4.758;2023-08-30T03:33:19;7.85;;;5.13;;
11614;SDS011;5863;52.832;4.758;2023-08-30T03:35:45;7.45;;;4.80;;
11614;SDS011;5863;52.832;4.758;2023-08-30T03:38:12;7.30;;;5.18;;
11614;SDS011;5863;52.832;4.758;2023-08-30T03:40:40;7.00;;;5.00;;
11614;SDS011;5863;52.832;4.758;2023-08-30T03:43:07;8.18;;;5.40;;
11614;SDS011;5863;52.832;4.758;2023-08-30T03:45:34;9.10;;;5.75;;
11614;SDS011;5863;52.832;4.758;2023-08-30T03:48:01;7.72;;;5.45;;
11614;SDS011;5863;52.832;4.758;2023-08-30T03:50:28;6.15;;;5.10;;
11614;SDS011;5863;52.832;4.758;2023-08-30T03:52:55;6.78;;;5.22;;
11614;SDS011;5863;52.832;4.758;2023-08-30T03:55:22;10.85;;;5.65;;
11614;SDS011;5863;52.832;4.758;2023-08-30T03:57:50;8.40;;;6.15;;
11614;SDS011;5863;52.832;4.758;2023-08-30T04:00:16;6.93;;;5.65;;
11614;SDS011;5863;52.832;4.758;2023-08-30T04:02:43;6.90;;;5.97;;
11614;SDS011;5863;52.832;4.758;2023-08-30T04:05:11;8.23;;;6.07;;
11614;SDS011;5863;52.832;4.758;2023-08-30T04:07:38;7.72;;;5.97;;
11614;SDS011;5863;52.832;4.758;2023-08-30T04:10:06;9.65;;;6.47;;
11614;SDS011;5863;52.832;4.758;2023-08-30T04:12:33;7.70;;;5.95;;
11614;SDS011;5863;52.832;4.758;2023-08-30T04:15:01;9.63;;;6.00;;
11614;SDS011;5863;52.832;4.758;2023-08-30T04:17:28;8.77;;;6.45;;
11614;SDS011;5863;52.832;4.758;2023-08-30T04:19:55;8.27;;;6.68;;
11614;SDS011;5863;52.832;4.758;2023-08-30T04:22:22;10.38;;;6.93;;
11614;SDS011;5863;52.832;4.758;2023-08-30T04:24:49;7.97;;;6.53;;
11614;SDS011;5863;52.832;4.758;2023-08-30T04:27:16;9.13;;;7.10;;
11614;SDS011;5863;52.832;4.758;2023-08-30T04:29:42;8.60;;;6.68;;
11614;SDS011;5863;52.832;4.758;2023-08-30T04:32:11;9.05;;;7.05;;
11614;SDS011;5863;52.832;4.758;2023-08-30T04:34:38;10.20;;;6.78;;
11614;SDS011;5863;52.832;4.758;2023-08-30T04:37:06;9.82;;;6.90;;
11614;SDS011;5863;52.832;4.758;2023-08-30T04:39:33;9.93;;;6.78;;
11614;SDS011;5863;52.832;4.758;2023-08-30T04:42:00;10.75;;;6.95;;
11614;SDS011;5863;52.832;4.758;2023-08-30T04:44:27;10.52;;;6.72;;
11614;SDS011;5863;52.832;4.758;2023-08-30T04:46:54;8.48;;;7.03;;
11614;SDS011;5863;52.832;4.758;2023-08-30T04:49:22;9.20;;;7.40;;
11614;SDS011;5863;52.832;4.758;2023-08-30T04:51:50;8.52;;;7.10;;
11614;SDS011;5863;52.832;4.758;2023-08-30T04:54:16;12.48;;;8.25;;
11614;SDS011;5863;52.832;4.758;2023-08-30T04:56:43;14.68;;;8.13;;
11614;SDS011;5863;52.832;4.758;2023-08-30T04:59:10;9.35;;;7.68;;
11614;SDS011;5863;52.832;4.758;2023-08-30T05:01:36;12.85;;;8.30;;
11614;SDS011;5863;52.832;4.758;2023-08-30T05:04:07;11.90;;;8.25;;
11614;SDS011;5863;52.832;4.758;2023-08-30T05:06:35;13.55;;;8.15;;
11614;SDS011;5863;52.832;4.758;2023-08-30T05:09:01;9.90;;;8.35;;
11614;SDS011;5863;52.832;4.758;2023-08-30T05:11:28;10.80;;;8.13;;
11614;SDS011;5863;52.832;4.758;2023-08-30T05:13:55;12.38;;;8.90;;
11614;SDS011;5863;52.832;4.758;2023-08-30T05:16:22;10.88;;;8.13;;
11614;SDS011;5863;52.832;4.758;2023-08-30T05:18:51;12.48;;;8.48;;
11614;SDS011;5863;52.832;4.758;2023-08-30T05:21:18;13.90;;;8.90;;
11614;SDS011;5863;52.832;4.758;2023-08-30T05:23:46;15.48;;;9.10;;
11614;SDS011;5863;52.832;4.758;2023-08-30T05:26:13;13.82;;;9.43;;
11614;SDS011;5863;52.832;4.758;2023-08-30T05:28:41;11.63;;;8.70;;
11614;SDS011;5863;52.832;4.758;2023-08-30T05:31:08;14.45;;;9.52;;
11614;SDS011;5863;52.832;4.758;2023-08-30T05:33:35;13.65;;;10.10;;
11614;SDS011;5863;52.832;4.758;2023-08-30T05:36:01;13.70;;;9.77;;
11614;SDS011;5863;52.832;4.758;2023-08-30T05:38:28;13.50;;;10.00;;
11614;SDS011;5863;52.832;4.758;2023-08-30T05:40:56;14.65;;;9.27;;
11614;SDS011;5863;52.832;4.758;2023-08-30T05:43:23;12.85;;;9.82;;
11614;SDS011;5863;52.832;4.758;2023-08-30T05:45:49;13.57;;;10.40;;
11614;SDS011;5863;52.832;4.758;2023-08-30T05:48:16;12.95;;;9.75;;
11614;SDS011;5863;52.832;4.758;2023-08-30T05:50:43;13.60;;;9.77;;
11614;SDS011;5863;52.832;4.758;2023-08-30T05:53:10;13.70;;;10.18;;
11614;SDS011;5863;52.832;4.758;2023-08-30T05:55:37;15.32;;;10.55;;
11614;SDS011;5863;52.832;4.758;2023-08-30T05:58:05;13.85;;;9.85;;
11614;SDS011;5863;52.832;4.758;2023-08-30T06:00:31;13.63;;;9.23;;
11614;SDS011;5863;52.832;4.758;2023-08-30T06:02:58;11.52;;;9.25;;
11614;SDS011;5863;52.832;4.758;2023-08-30T06:05:25;12.65;;;8.60;;
11614;SDS011;5863;52.832;4.758;2023-08-30T06:07:52;15.27;;;9.52;;
11614;SDS011;5863;52.832;4.758;2023-08-30T06:10:19;13.88;;;9.20;;
11614;SDS011;5863;52.832;4.758;2023-08-30T06:12:46;11.60;;;8.77;;
11614;SDS011;5863;52.832;4.758;2023-08-30T06:15:15;12.70;;;9.32;;
11614;SDS011;5863;52.832;4.758;2023-08-30T06:17:41;13.85;;;9.27;;
11614;SDS011;5863;52.832;4.758;2023-08-30T06:20:08;11.68;;;9.02;;
11614;SDS011;5863;52.832;4.758;2023-08-30T06:22:35;13.02;;;9.05;;
11614;SDS011;5863;52.832;4.758;2023-08-30T06:25:02;11.25;;;8.95;;
11614;SDS011;5863;52.832;4.758;2023-08-30T06:27:29;11.20;;;8.45;;
11614;SDS011;5863;52.832;4.758;2023-08-30T06:29:56;13.45;;;9.05;;
11614;SDS011;5863;52.832;4.758;2023-08-30T06:32:24;10.02;;;8.43;;
11614;SDS011;5863;52.832;4.758;2023-08-30T06:34:51;11.30;;;8.65;;
11614;SDS011;5863;52.832;4.758;2023-08-30T06:37:17;13.07;;;8.75;;
11614;SDS011;5863;52.832;4.758;2023-08-30T06:39:44;10.43;;;8.43;;
11614;SDS011;5863;52.832;4.758;2023-08-30T06:42:11;12.45;;;7.80;;
11614;SDS011;5863;52.832;4.758;2023-08-30T06:44:37;11.52;;;7.63;;
11614;SDS011;5863;52.832;4.758;2023-08-30T06:47:05;11.18;;;8.18;;
11614;SDS011;5863;52.832;4.758;2023-08-30T06:49:33;9.23;;;7.55;;
11614;SDS011;5863;52.832;4.758;2023-08-30T06:52:00;12.85;;;8.25;;
11614;SDS011;5863;52.832;4.758;2023-08-30T06:54:28;10.50;;;7.90;;
11614;SDS011;5863;52.832;4.758;2023-08-30T06:56:56;9.82;;;7.05;;
11614;SDS011;5863;52.832;4.758;2023-08-30T06:59:24;11.82;;;7.82;;
11614;SDS011;5863;52.832;4.758;2023-08-30T07:01:51;11.88;;;7.53;;
11614;SDS011;5863;52.832;4.758;2023-08-30T07:04:17;11.32;;;7.65;;
11614;SDS011;5863;52.832;4.758;2023-08-30T07:06:45;11.73;;;7.47;;
11614;SDS011;5863;52.832;4.758;2023-08-30T07:09:12;11.02;;;7.63;;
11614;SDS011;5863;52.832;4.758;2023-08-30T07:11:39;10.27;;;6.90;;
11614;SDS011;5863;52.832;4.758;2023-08-30T07:14:09;13.15;;;7.03;;
11614;SDS011;5863;52.832;4.758;2023-08-30T07:16:35;8.70;;;6.18;;
11614;SDS011;5863;52.832;4.758;2023-08-30T07:19:02;9.73;;;6.50;;
11614;SDS011;5863;52.832;4.758;2023-08-30T07:21:29;8.68;;;6.38;;
11614;SDS011;5863;52.832;4.758;2023-08-30T07:23:57;8.73;;;5.95;;
11614;SDS011;5863;52.832;4.758;2023-08-30T07:26:23;12.63;;;6.43;;
11614;SDS011;5863;52.832;4.758;2023-08-30T07:28:50;9.02;;;5.72;;
11614;SDS011;5863;52.832;4.758;2023-08-30T07:31:17;7.78;;;5.50;;
11614;SDS011;5863;52.832;4.758;2023-08-30T07:33:43;7.10;;;5.25;;
11614;SDS011;5863;52.832;4.758;2023-08-30T07:36:10;9.90;;;5.63;;
11614;SDS011;5863;52.832;4.758;2023-08-30T07:38:37;8.55;;;6.10;;
11614;SDS011;5863;52.832;4.758;2023-08-30T07:41:05;9.43;;;6.15;;
11614;SDS011;5863;52.832;4.758;2023-08-30T07:43:32;7.60;;;5.88;;
11614;SDS011;5863;52.832;4.758;2023-08-30T07:45:58;9.40;;;6.00;;
11614;SDS011;5863;52.832;4.758;2023-08-30T07:48:25;7.85;;;5.55;;
11614;SDS011;5863;52.832;4.758;2023-08-30T07:50:52;9.00;;;5.85;;
11614;SDS011;5863;52.832;4.758;2023-08-30T07:53:18;9.23;;;6.30;;
11614;SDS011;5863;52.832;4.758;2023-08-30T07:55:47;8.70;;;5.80;;
11614;SDS011;5863;52.832;4.758;2023-08-30T07:58:16;7.75;;;5.88;;
11614;SDS011;5863;52.832;4.758;2023-08-30T08:00:43;6.05;;;4.90;;
11614;SDS011;5863;52.832;4.758;2023-08-30T08:03:10;7.18;;;5.47;;
11614;SDS011;5863;52.832;4.758;2023-08-30T08:05:36;10.23;;;5.28;;
11614;SDS011;5863;52.832;4.758;2023-08-30T08:08:03;6.70;;;5.07;;
11614;SDS011;5863;52.832;4.758;2023-08-30T08:10:31;8.55;;;5.85;;
11614;SDS011;5863;52.832;4.758;2023-08-30T08:12:58;8.10;;;5.45;;
11614;SDS011;5863;52.832;4.758;2023-08-30T08:15:27;8.95;;;5.50;;
11614;SDS011;5863;52.832;4.758;2023-08-30T08:17:55;8.15;;;5.18;;
11614;SDS011;5863;52.832;4.758;2023-08-30T08:20:22;5.70;;;5.07;;
11614;SDS011;5863;52.832;4.758;2023-08-30T08:22:49;7.15;;;5.13;;
11614;SDS011;5863;52.832;4.758;2023-08-30T08:25:15;5.60;;;4.68;;
11614;SDS011;5863;52.832;4.758;2023-08-30T08:27:42;7.65;;;5.13;;
11614;SDS011;5863;52.832;4.758;2023-08-30T08:30:09;7.50;;;5.03;;
11614;SDS011;5863;52.832;4.758;2023-08-30T08:32:38;6.40;;;4.75;;
11614;SDS011;5863;52.832;4.758;2023-08-30T08:35:05;7.35;;;5.20;;
11614;SDS011;5863;52.832;4.758;2023-08-30T08:37:32;8.00;;;5.20;;
11614;SDS011;5863;52.832;4.758;2023-08-30T08:39:59;8.35;;;5.18;;
11614;SDS011;5863;52.832;4.758;2023-08-30T08:42:30;6.32;;;4.32;;
11614;SDS011;5863;52.832;4.758;2023-08-30T08:44:57;7.95;;;5.57;;
11614;SDS011;5863;52.832;4.758;2023-08-30T08:47:25;6.10;;;5.10;;
11614;SDS011;5863;52.832;4.758;2023-08-30T08:49:53;6.72;;;5.03;;
11614;SDS011;5863;52.832;4.758;2023-08-30T08:52:20;7.82;;;5.35;;
11614;SDS011;5863;52.832;4.758;2023-08-30T08:54:47;7.28;;;5.35;;
11614;SDS011;5863;52.832;4.758;2023-08-30T08:57:14;7.63;;;5.65;;
11614;SDS011;5863;52.832;4.758;2023-08-30T08:59:41;8.60;;;5.80;;
11614;SDS011;5863;52.832;4.758;2023-08-30T09:02:08;8.48;;;5.45;;
11614;SDS011;5863;52.832;4.758;2023-08-30T09:04:38;7.18;;;5.43;;
11614;SDS011;5863;52.832;4.758;2023-08-30T09:07:07;6.95;;;6.15;;
11614;SDS011;5863;52.832;4.758;2023-08-30T09:09:34;6.80;;;5.72;;
11614;SDS011;5863;52.832;4.758;2023-08-30T09:12:00;7.72;;;5.82;;
11614;SDS011;5863;52.832;4.758;2023-08-30T09:14:28;8.63;;;5.80;;
11614;SDS011;5863;52.832;4.758;2023-08-30T09:16:54;7.40;;;5.70;;
11614;SDS011;5863;52.832;4.758;2023-08-30T09:19:22;8.20;;;5.88;;
11614;SDS011;5863;52.832;4.758;2023-08-30T09:21:52;8.60;;;5.80;;
11614;SDS011;5863;52.832;4.758;2023-08-30T09:24:20;5.97;;;4.57;;
11614;SDS011;5863;52.832;4.758;2023-08-30T09:26:47;5.63;;;4.47;;
11614;SDS011;5863;52.832;4.758;2023-08-30T09:29:16;6.43;;;4.57;;
11614;SDS011;5863;52.832;4.758;2023-08-30T09:31:43;6.25;;;4.47;;
11614;SDS011;5863;52.832;4.758;2023-08-30T09:34:10;5.95;;;4.45;;
11614;SDS011;5863;52.832;4.758;2023-08-30T09:36:37;4.30;;;3.90;;
11614;SDS011;5863;52.832;4.758;2023-08-30T09:39:05;5.55;;;3.78;;
11614;SDS011;5863;52.832;4.758;2023-08-30T09:41:36;5.10;;;4.18;;
11614;SDS011;5863;52.832;4.758;2023-08-30T09:44:06;4.40;;;3.88;;
11614;SDS011;5863;52.832;4.758;2023-08-30T09:46:39;5.55;;;4.50;;
11614;SDS011;5863;52.832;4.758;2023-08-30T09:49:07;6.85;;;3.83;;
11614;SDS011;5863;52.832;4.758;2023-08-30T09:51:35;4.32;;;3.90;;
11614;SDS011;5863;52.832;4.758;2023-08-30T09:54:06;4.55;;;3.78;;
11614;SDS011;5863;52.832;4.758;2023-08-30T09:56:41;5.65;;;3.72;;
11614;SDS011;5863;52.832;4.758;2023-08-30T09:59:08;4.10;;;3.58;;
11614;SDS011;5863;52.832;4.758;2023-08-30T10:01:37;4.53;;;3.15;;
11614;SDS011;5863;52.832;4.758;2023-08-30T10:04:04;4.57;;;3.03;;
11614;SDS011;5863;52.832;4.758;2023-08-30T10:06:32;4.70;;;2.90;;
11614;SDS011;5863;52.832;4.758;2023-08-30T10:08:59;3.45;;;2.60;;
11614;SDS011;5863;52.832;4.758;2023-08-30T10:11:28;3.60;;;2.22;;
11614;SDS011;5863;52.832;4.758;2023-08-30T10:14:00;3.65;;;2.05;;
11614;SDS011;5863;52.832;4.758;2023-08-30T10:16:28;2.38;;;1.98;;
11614;SDS011;5863;52.832;4.758;2023-08-30T10:19:01;3.00;;;1.80;;
11614;SDS011;5863;52.832;4.758;2023-08-30T10:21:30;3.67;;;2.13;;
11614;SDS011;5863;52.832;4.758;2023-08-30T10:23:57;3.78;;;2.15;;
11614;SDS011;5863;52.832;4.758;2023-08-30T10:26:29;2.97;;;2.17;;
11614;SDS011;5863;52.832;4.758;2023-08-30T10:28:57;6.82;;;2.78;;
11614;SDS011;5863;52.832;4.758;2023-08-30T10:31:28;3.80;;;2.08;;
11614;SDS011;5863;52.832;4.758;2023-08-30T10:33:55;3.47;;;2.03;;
11614;SDS011;5863;52.832;4.758;2023-08-30T10:36:22;5.05;;;2.42;;
11614;SDS011;5863;52.832;4.758;2023-08-30T10:38:49;5.30;;;2.25;;
11614;SDS011;5863;52.832;4.758;2023-08-30T10:41:20;6.13;;;2.20;;
11614;SDS011;5863;52.832;4.758;2023-08-30T10:43:49;5.65;;;2.30;;
11614;SDS011;5863;52.832;4.758;2023-08-30T10:46:28;5.68;;;2.22;;
11614;SDS011;5863;52.832;4.758;2023-08-30T10:48:56;7.03;;;2.47;;
11614;SDS011;5863;52.832;4.758;2023-08-30T10:51:35;6.15;;;2.08;;
11614;SDS011;5863;52.832;4.758;2023-08-30T10:54:09;4.05;;;2.17;;
11614;SDS011;5863;52.832;4.758;2023-08-30T10:56:45;6.05;;;2.15;;
11614;SDS011;5863;52.832;4.758;2023-08-30T10:59:16;5.95;;;2.28;;
11614;SDS011;5863;52.832;4.758;2023-08-30T11:01:45;8.27;;;2.40;;
11614;SDS011;5863;52.832;4.758;2023-08-30T11:04:12;4.18;;;1.92;;
11614;SDS011;5863;52.832;4.758;2023-08-30T11:06:41;6.50;;;2.35;;
11614;SDS011;5863;52.832;4.758;2023-08-30T11:09:09;3.78;;;2.10;;
11614;SDS011;5863;52.832;4.758;2023-08-30T11:11:36;6.22;;;2.33;;
11614;SDS011;5863;52.832;4.758;2023-08-30T11:14:04;4.68;;;2.00;;
11614;SDS011;5863;52.832;4.758;2023-08-30T11:16:31;5.53;;;1.83;;
11614;SDS011;5863;52.832;4.758;2023-08-30T11:19:01;3.78;;;1.58;;
11614;SDS011;5863;52.832;4.758;2023-08-30T11:21:28;5.05;;;1.88;;
11614;SDS011;5863;52.832;4.758;2023-08-30T11:23:56;4.57;;;1.98;;
11614;SDS011;5863;52.832;4.758;2023-08-30T11:26:22;8.32;;;2.00;;
11614;SDS011;5863;52.832;4.758;2023-08-30T11:28:49;11.13;;;2.10;;
11614;SDS011;5863;52.832;4.758;2023-08-30T11:31:17;7.15;;;2.03;;
11614;SDS011;5863;52.832;4.758;2023-08-30T11:33:51;5.53;;;1.90;;
11614;SDS011;5863;52.832;4.758;2023-08-30T11:36:22;6.32;;;2.10;;
11614;SDS011;5863;52.832;4.758;2023-08-30T11:38:50;7.75;;;1.98;;
11614;SDS011;5863;52.832;4.758;2023-08-30T11:41:16;5.25;;;1.80;;
11614;SDS011;5863;52.832;4.758;2023-08-30T11:43:43;7.65;;;1.70;;
11614;SDS011;5863;52.832;4.758;2023-08-30T11:46:10;3.38;;;1.70;;
11614;SDS011;5863;52.832;4.758;2023-08-30T11:48:37;6.32;;;1.80;;
11614;SDS011;5863;52.832;4.758;2023-08-30T11:51:04;7.15;;;1.92;;
11614;SDS011;5863;52.832;4.758;2023-08-30T11:53:33;8.75;;;2.00;;
11614;SDS011;5863;52.832;4.758;2023-08-30T11:56:00;6.85;;;2.20;;
11614;SDS011;5863;52.832;4.758;2023-08-30T11:58:27;4.13;;;1.65;;
11614;SDS011;5863;52.832;4.758;2023-08-30T12:00:54;4.78;;;1.90;;
11614;SDS011;5863;52.832;4.758;2023-08-30T12:03:21;5.85;;;1.60;;
11614;SDS011;5863;52.832;4.758;2023-08-30T12:05:49;5.43;;;1.33;;
11614;SDS011;5863;52.832;4.758;2023-08-30T12:08:19;4.65;;;1.73;;
11614;SDS011;5863;52.832;4.758;2023-08-30T12:10:48;5.63;;;1.50;;
11614;SDS011;5863;52.832;4.758;2023-08-30T12:13:21;4.18;;;1.60;;
11614;SDS011;5863;52.832;4.758;2023-08-30T12:15:49;4.72;;;1.60;;
11614;SDS011;5863;52.832;4.758;2023-08-30T12:18:15;4.43;;;1.27;;
11614;SDS011;5863;52.832;4.758;2023-08-30T12:20:51;3.95;;;1.75;;
11614;SDS011;5863;52.832;4.758;2023-08-30T12:23:21;5.57;;;1.50;;
11614;SDS011;5863;52.832;4.758;2023-08-30T12:26:03;5.47;;;1.23;;
11614;SDS011;5863;52.832;4.758;2023-08-30T12:28:31;4.20;;;1.33;;
11614;SDS011;5863;52.832;4.758;2023-08-30T12:30:59;6.90;;;1.50;;
11614;SDS011;5863;52.832;4.758;2023-08-30T12:33:26;7.28;;;1.85;;
11614;SDS011;5863;52.832;4.758;2023-08-30T12:35:53;4.15;;;1.38;;
11614;SDS011;5863;52.832;4.758;2023-08-30T12:38:20;5.97;;;1.70;;
11614;SDS011;5863;52.832;4.758;2023-08-30T12:40:47;6.60;;;1.67;;
11614;SDS011;5863;52.832;4.758;2023-08-30T12:43:17;7.32;;;2.17;;
11614;SDS011;5863;52.832;4.758;2023-08-30T12:45:46;4.57;;;1.60;;
11614;SDS011;5863;52.832;4.758;2023-08-30T12:48:13;3.40;;;1.45;;
11614;SDS011;5863;52.832;4.758;2023-08-30T12:50:41;5.95;;;1.20;;
11614;SDS011;5863;52.832;4.758;2023-08-30T12:53:10;4.38;;;1.38;;
11614;SDS011;5863;52.832;4.758;2023-08-30T12:55:36;6.20;;;1.20;;
11614;SDS011;5863;52.832;4.758;2023-08-30T12:58:04;5.18;;;1.42;;
11614;SDS011;5863;52.832;4.758;2023-08-30T13:00:32;5.07;;;1.45;;
11614;SDS011;5863;52.832;4.758;2023-08-30T13:03:00;4.00;;;1.38;;
11614;SDS011;5863;52.832;4.758;2023-08-30T13:05:27;3.30;;;1.45;;
11614;SDS011;5863;52.832;4.758;2023-08-30T13:07:55;5.13;;;1.42;;
11614;SDS011;5863;52.832;4.758;2023-08-30T13:10:22;2.85;;;1.33;;
11614;SDS011;5863;52.832;4.758;2023-08-30T13:12:48;6.07;;;1.58;;
11614;SDS011;5863;52.832;4.758;2023-08-30T13:15:15;9.93;;;1.40;;
11614;SDS011;5863;52.832;4.758;2023-08-30T13:17:44;3.80;;;1.30;;
11614;SDS011;5863;52.832;4.758;2023-08-30T13:20:10;3.28;;;1.27;;
11614;SDS011;5863;52.832;4.758;2023-08-30T13:22:37;3.97;;;1.60;;
11614;SDS011;5863;52.832;4.758;2023-08-30T13:25:04;3.92;;;1.15;;
11614;SDS011;5863;52.832;4.758;2023-08-30T13:27:32;4.43;;;1.58;;
11614;SDS011;5863;52.832;4.758;2023-08-30T13:29:59;3.45;;;1.10;;
11614;SDS011;5863;52.832;4.758;2023-08-30T13:32:25;6.10;;;1.17;;
11614;SDS011;5863;52.832;4.758;2023-08-30T13:34:54;4.28;;;1.00;;
11614;SDS011;5863;52.832;4.758;2023-08-30T13:37:21;3.45;;;1.67;;
11614;SDS011;5863;52.832;4.758;2023-08-30T13:39:48;6.65;;;1.38;;
11614;SDS011;5863;52.832;4.758;2023-08-30T13:42:15;2.65;;;1.20;;
11614;SDS011;5863;52.832;4.758;2023-08-30T13:44:41;5.60;;;1.50;;
11614;SDS011;5863;52.832;4.758;2023-08-30T13:47:09;5.30;;;1.50;;
11614;SDS011;5863;52.832;4.758;2023-08-30T13:49:35;3.75;;;1.52;;
11614;SDS011;5863;52.832;4.758;2023-08-30T13:52:04;4.85;;;1.17;;
11614;SDS011;5863;52.832;4.758;2023-08-30T13:54:32;5.30;;;1.30;;
11614;SDS011;5863;52.832;4.758;2023-08-30T13:56:59;1.30;;;0.82;;
11614;SDS011;5863;52.832;4.758;2023-08-30T13:59:25;6.93;;;1.60;;
11614;SDS011;5863;52.832;4.758;2023-08-30T14:01:53;1.95;;;1.00;;
11614;SDS011;5863;52.832;4.758;2023-08-30T14:04:22;3.10;;;1.00;;
11614;SDS011;5863;52.832;4.758;2023-08-30T14:06:49;2.60;;;1.30;;
11614;SDS011;5863;52.832;4.758;2023-08-30T14:09:17;3.20;;;1.30;;
11614;SDS011;5863;52.832;4.758;2023-08-30T14:11:44;4.32;;;1.40;;
11614;SDS011;5863;52.832;4.758;2023-08-30T14:14:10;7.68;;;1.65;;
11614;SDS011;5863;52.832;4.758;2023-08-30T14:16:37;4.00;;;1.50;;
11614;SDS011;5863;52.832;4.758;2023-08-30T14:19:04;4.93;;;1.35;;
11614;SDS011;5863;52.832;4.758;2023-08-30T14:21:31;6.10;;;1.48;;
11614;SDS011;5863;52.832;4.758;2023-08-30T14:23:58;3.17;;;1.33;;
11614;SDS011;5863;52.832;4.758;2023-08-30T14:26:26;6.07;;;1.27;;
11614;SDS011;5863;52.832;4.758;2023-08-30T14:28:54;3.05;;;1.20;;
11614;SDS011;5863;52.832;4.758;2023-08-30T14:31:20;5.40;;;1.30;;
11614;SDS011;5863;52.832;4.758;2023-08-30T14:33:47;5.20;;;1.20;;
11614;SDS011;5863;52.832;4.758;2023-08-30T14:36:14;3.45;;;1.20;;
11614;SDS011;5863;52.832;4.758;2023-08-30T14:38:41;2.97;;;1.30;;
11614;SDS011;5863;52.832;4.758;2023-08-30T14:41:08;3.35;;;1.38;;
11614;SDS011;5863;52.832;4.758;2023-08-30T14:43:36;5.05;;;1.65;;
11614;SDS011;5863;52.832;4.758;2023-08-30T14:46:03;1.92;;;1.20;;
11614;SDS011;5863;52.832;4.758;2023-08-30T14:48:31;3.15;;;1.40;;
11614;SDS011;5863;52.832;4.758;2023-08-30T14:50:58;4.00;;;1.35;;
11614;SDS011;5863;52.832;4.758;2023-08-30T14:53:25;4.22;;;1.38;;
11614;SDS011;5863;52.832;4.758;2023-08-30T14:55:52;4.32;;;1.45;;
11614;SDS011;5863;52.832;4.758;2023-08-30T14:58:20;6.63;;;1.50;;
11614;SDS011;5863;52.832;4.758;2023-08-30T15:00:48;5.18;;;1.80;;